Time;durP1;ratioP1;P1;durP2;ratioP2;P2;SDS_P1;SDS_P2;PMS_P1;PMS_P2;Temp;Humidity;BMP_temperature;BMP_pressure;BME280_temperature;BME280_humidity;BME280_pressure;Samples;Min_cycle;Max_cycle;Signal;HPM_P1;HPM_P2
2021/05/29 00:01:30;;;;;;;1.30;1.10;;;12.20;98.00;;;;;;5047529;28;20523;-71
2021/05/29 00:03:56;;;;;;;1.20;0.90;;;12.40;98.00;;;;;;5051775;28;20486;-71
2021/05/29 00:06:23;;;;;;;1.73;1.30;;;12.40;98.00;;;;;;5047733;28;20988;-70
2021/05/29 00:08:50;;;;;;;1.20;1.10;;;12.40;98.00;;;;;;5051945;28;20459;-70
2021/05/29 00:11:18;;;;;;;1.20;0.93;;;12.10;98.00;;;;;;5046862;28;21014;-69
2021/05/29 00:13:45;;;;;;;1.20;1.00;;;12.00;98.00;;;;;;5051646;28;20829;-71
2021/05/29 00:16:13;;;;;;;1.20;1.07;;;11.80;98.00;;;;;;5048652;28;20457;-70
2021/05/29 00:18:40;;;;;;;1.20;1.00;;;11.60;98.00;;;;;;5033931;28;20457;-70
2021/05/29 00:21:09;;;;;;;1.20;0.90;;;11.50;98.00;;;;;;5048364;28;20996;-70
2021/05/29 00:23:36;;;;;;;2.20;1.50;;;11.50;98.00;;;;;;5050115;28;20464;-71
2021/05/29 00:26:07;;;;;;;1.50;1.13;;;11.50;98.00;;;;;;5048378;28;20458;-72
2021/05/29 00:28:35;;;;;;;1.20;1.00;;;11.40;98.00;;;;;;5051470;28;20456;-70
2021/05/29 00:31:01;;;;;;;1.40;1.10;;;11.60;98.00;;;;;;5048544;28;20453;-71
2021/05/29 00:33:28;;;;;;;1.20;1.00;;;11.60;98.00;;;;;;5051385;28;20454;-70
2021/05/29 00:35:54;;;;;;;1.20;0.97;;;11.70;98.00;;;;;;5048023;28;20879;-72
2021/05/29 00:38:21;;;;;;;2.53;1.77;;;11.80;98.00;;;;;;5051297;28;20817;-70
2021/05/29 00:40:48;;;;;;;1.20;1.00;;;11.80;98.00;;;;;;5048246;28;20500;-70
2021/05/29 00:43:15;;;;;;;2.37;1.43;;;11.70;98.00;;;;;;5051183;28;20445;-70
2021/05/29 00:45:42;;;;;;;1.20;1.10;;;11.60;98.00;;;;;;5048115;28;20459;-69
2021/05/29 00:48:09;;;;;;;1.20;1.20;;;11.60;98.00;;;;;;5051085;28;20903;-70
2021/05/29 00:50:47;;;;;;;1.30;1.00;;;11.70;98.00;;;;;;5048424;28;20577;-71
2021/05/29 00:53:14;;;;;;;1.50;1.13;;;11.70;98.00;;;;;;5051463;28;20804;-70
2021/05/29 00:55:40;;;;;;;1.30;1.20;;;11.70;98.00;;;;;;5048359;28;20519;-69
2021/05/29 00:58:07;;;;;;;1.20;0.90;;;11.60;98.00;;;;;;5051374;28;20848;-71
2021/05/29 01:00:34;;;;;;;1.30;1.00;;;11.50;98.00;;;;;;5048327;28;20531;-71
2021/05/29 01:03:01;;;;;;;1.20;1.00;;;11.40;98.00;;;;;;5052697;28;20488;-70
2021/05/29 01:05:27;;;;;;;1.20;1.10;;;11.30;98.00;;;;;;5052265;28;20963;-70
2021/05/29 01:07:55;;;;;;;1.23;1.07;;;11.30;98.00;;;;;;5054796;28;20944;-71
2021/05/29 01:10:23;;;;;;;1.70;1.30;;;11.30;98.00;;;;;;5051820;28;21111;-70
2021/05/29 01:12:51;;;;;;;1.30;1.07;;;11.40;98.00;;;;;;5054686;28;20468;-71
2021/05/29 01:15:20;;;;;;;1.20;1.00;;;11.30;98.00;;;;;;5051978;28;20459;-71
2021/05/29 01:17:47;;;;;;;1.20;0.90;;;11.40;98.00;;;;;;5054714;28;20953;-70
2021/05/29 01:20:15;;;;;;;1.20;1.00;;;11.50;98.00;;;;;;5052004;28;21126;-70
2021/05/29 01:22:45;;;;;;;1.20;1.00;;;11.60;98.00;;;;;;5054583;28;20490;-70
2021/05/29 01:25:17;;;;;;;1.20;0.90;;;11.60;98.00;;;;;;5051602;28;20477;-70
2021/05/29 01:27:44;;;;;;;1.20;0.90;;;11.70;98.00;;;;;;5054529;28;21027;-70
2021/05/29 01:30:13;;;;;;;1.20;1.00;;;11.80;98.00;;;;;;5051876;28;21491;-70
2021/05/29 01:32:40;;;;;;;1.20;1.03;;;11.60;98.00;;;;;;5054136;28;20451;-70
2021/05/29 01:35:09;;;;;;;1.40;1.23;;;11.50;98.00;;;;;;5051405;28;20506;-70
2021/05/29 01:37:37;;;;;;;1.20;1.00;;;11.30;98.00;;;;;;5054387;28;20461;-71
2021/05/29 01:40:07;;;;;;;1.77;1.27;;;11.20;98.00;;;;;;5050085;28;20537;-70
2021/05/29 01:42:35;;;;;;;1.20;0.90;;;11.10;98.00;;;;;;5053164;28;20457;-70
2021/05/29 01:45:04;;;;;;;1.70;1.20;;;11.00;98.00;;;;;;5051457;28;20605;-70
2021/05/29 01:47:31;;;;;;;1.20;0.90;;;10.90;98.00;;;;;;5054042;28;21102;-69
2021/05/29 01:49:58;;;;;;;1.37;1.10;;;10.90;98.00;;;;;;5051311;28;20475;-71
2021/05/29 01:52:50;;;;;;;1.20;0.93;;;11.00;98.00;;;;;;5053693;28;20472;-69
2021/05/29 01:55:18;;;;;;;1.20;1.00;;;11.00;98.00;;;;;;5050966;28;20461;-70
2021/05/29 01:57:46;;;;;;;1.30;1.10;;;11.10;98.00;;;;;;5053769;28;20517;-70
2021/05/29 02:00:13;;;;;;;1.40;1.17;;;11.20;98.00;;;;;;5050961;28;20496;-70
2021/05/29 02:02:40;;;;;;;1.20;0.90;;;11.30;98.00;;;;;;5053779;28;20460;-70
2021/05/29 02:05:14;;;;;;;1.20;1.00;;;11.10;98.00;;;;;;5051121;28;20498;-70
2021/05/29 02:07:41;;;;;;;1.20;1.00;;;11.00;98.00;;;;;;5053691;28;20457;-70
2021/05/29 02:10:10;;;;;;;1.20;1.00;;;11.00;98.00;;;;;;5050549;28;20883;-70
2021/05/29 02:12:39;;;;;;;1.47;1.20;;;11.00;98.00;;;;;;5053447;28;20555;-70
2021/05/29 02:15:07;;;;;;;1.50;1.20;;;11.00;98.00;;;;;;5049848;28;20467;-70
2021/05/29 02:17:34;;;;;;;1.30;1.20;;;10.90;98.00;;;;;;5053555;28;20478;-71
2021/05/29 02:20:00;;;;;;;1.20;1.00;;;10.90;98.00;;;;;;5050428;28;20524;-69
2021/05/29 02:22:27;;;;;;;1.20;1.10;;;11.00;98.00;;;;;;5053755;28;20465;-69
2021/05/29 02:24:53;;;;;;;1.20;1.10;;;11.00;98.00;;;;;;5052263;28;20477;-70
2021/05/29 02:27:19;;;;;;;1.20;1.10;;;10.90;98.00;;;;;;5051135;28;20585;-70
2021/05/29 02:29:47;;;;;;;1.20;1.00;;;10.90;98.00;;;;;;5053675;28;20494;-70
2021/05/29 02:32:13;;;;;;;1.20;0.90;;;10.80;98.00;;;;;;5050729;28;20808;-70
2021/05/29 02:34:40;;;;;;;1.20;1.10;;;10.80;98.00;;;;;;5052303;28;20460;-70
2021/05/29 02:37:06;;;;;;;1.40;1.17;;;10.80;98.00;;;;;;5049798;28;20461;-71
2021/05/29 02:39:33;;;;;;;1.20;1.07;;;10.80;98.00;;;;;;5053249;28;20464;-69
2021/05/29 02:42:03;;;;;;;1.20;1.00;;;10.70;98.00;;;;;;5050395;28;20475;-70
2021/05/29 02:44:30;;;;;;;1.20;1.00;;;10.50;98.00;;;;;;5053188;28;20540;-70
2021/05/29 02:46:58;;;;;;;1.30;1.00;;;10.50;98.00;;;;;;5048924;28;20457;-71
2021/05/29 02:49:24;;;;;;;1.20;1.10;;;10.50;98.00;;;;;;5052964;28;20463;-69
2021/05/29 02:51:53;;;;;;;2.60;1.10;;;10.70;98.00;;;;;;5050103;28;20470;-71
2021/05/29 02:54:21;;;;;;;1.20;1.00;;;10.70;98.00;;;;;;5052862;28;20527;-70
2021/05/29 02:56:51;;;;;;;1.20;1.10;;;10.70;98.00;;;;;;5049870;28;20460;-71
2021/05/29 02:59:17;;;;;;;2.13;1.43;;;10.40;98.00;;;;;;5051544;28;20464;-70
2021/05/29 03:01:44;;;;;;;1.20;1.00;;;10.30;98.00;;;;;;5049966;28;20576;-69
2021/05/29 03:04:11;;;;;;;1.30;1.20;;;10.30;98.00;;;;;;5051557;28;20474;-69
2021/05/29 03:06:39;;;;;;;1.20;1.10;;;10.30;98.00;;;;;;5050052;28;20519;-71
2021/05/29 03:09:07;;;;;;;1.20;0.90;;;10.20;98.00;;;;;;5051012;28;20539;-70
2021/05/29 03:11:41;;;;;;;1.67;1.10;;;10.20;98.00;;;;;;5048929;28;20451;-70
2021/05/29 03:14:08;;;;;;;1.57;1.00;;;10.20;98.00;;;;;;5051365;28;20491;-70
2021/05/29 03:16:35;;;;;;;1.30;1.20;;;10.10;98.00;;;;;;5049687;28;20446;-70
2021/05/29 03:19:01;;;;;;;1.30;1.00;;;10.00;98.00;;;;;;5052582;28;20989;-70
2021/05/29 03:21:29;;;;;;;1.20;1.00;;;10.10;98.00;;;;;;5049272;28;21025;-70
2021/05/29 03:23:58;;;;;;;1.20;1.00;;;10.00;98.00;;;;;;5051022;28;20549;-70
2021/05/29 03:26:25;;;;;;;1.20;1.10;;;10.00;98.00;;;;;;5049427;28;20573;-70
2021/05/29 03:28:52;;;;;;;1.20;1.10;;;10.00;98.00;;;;;;5052318;28;20462;-70
2021/05/29 03:31:19;;;;;;;1.40;1.27;;;10.20;98.00;;;;;;5049208;28;20961;-70
2021/05/29 03:33:45;;;;;;;1.20;0.90;;;10.30;98.00;;;;;;5051971;28;20451;-70
2021/05/29 03:36:12;;;;;;;1.20;1.00;;;10.30;98.00;;;;;;5049388;28;20516;-71
2021/05/29 03:38:41;;;;;;;1.50;1.10;;;10.30;98.00;;;;;;5050675;28;20461;-70
2021/05/29 03:41:08;;;;;;;1.40;1.10;;;10.10;98.00;;;;;;5048892;28;20528;-71
2021/05/29 03:43:35;;;;;;;1.20;0.90;;;10.00;98.00;;;;;;5051931;28;20458;-71
2021/05/29 03:46:01;;;;;;;1.20;1.00;;;10.00;98.00;;;;;;5048287;28;20911;-69
2021/05/29 03:48:28;;;;;;;1.90;1.30;;;9.90;98.00;;;;;;5051745;28;20797;-70
2021/05/29 03:50:54;;;;;;;1.20;1.10;;;9.90;98.00;;;;;;5048951;28;20998;-71
2021/05/29 03:53:20;;;;;;;1.40;1.30;;;10.10;98.00;;;;;;5052007;28;20854;-70
2021/05/29 03:55:48;;;;;;;1.30;1.03;;;10.30;98.00;;;;;;5049381;28;20461;-71
2021/05/29 03:58:15;;;;;;;1.40;1.10;;;10.30;98.00;;;;;;5051885;28;20483;-71
2021/05/29 04:00:41;;;;;;;1.30;1.10;;;10.40;98.00;;;;;;5049121;28;20489;-70
2021/05/29 04:03:08;;;;;;;1.70;1.07;;;10.60;98.00;;;;;;5051819;28;20469;-70
2021/05/29 04:05:35;;;;;;;1.20;0.90;;;10.60;98.00;;;;;;5049034;28;20551;-69
2021/05/29 04:08:01;;;;;;;1.20;1.00;;;10.40;98.00;;;;;;5051357;28;20538;-71
2021/05/29 04:10:30;;;;;;;1.30;1.10;;;10.20;98.00;;;;;;5049143;28;20541;-70
2021/05/29 04:12:58;;;;;;;1.20;1.03;;;10.10;98.00;;;;;;5051538;28;20566;-70
2021/05/29 04:15:25;;;;;;;1.30;1.10;;;10.00;98.00;;;;;;5048677;28;20965;-70
2021/05/29 04:17:52;;;;;;;1.20;0.90;;;10.10;98.00;;;;;;5051397;28;20507;-70
2021/05/29 04:20:20;;;;;;;2.43;1.57;;;10.10;98.00;;;;;;5048375;28;20487;-70
2021/05/29 04:22:47;;;;;;;1.30;1.23;;;10.20;98.00;;;;;;5051490;28;20861;-70
2021/05/29 04:25:17;;;;;;;1.40;1.00;;;10.30;98.00;;;;;;5048320;28;20543;-70
2021/05/29 04:27:43;;;;;;;1.20;1.10;;;10.40;98.00;;;;;;5050268;28;20450;-71
2021/05/29 04:30:14;;;;;;;1.70;1.33;;;10.60;98.00;;;;;;5049788;28;20464;-71
2021/05/29 04:32:41;;;;;;;1.30;1.23;;;10.70;98.00;;;;;;5051241;28;20520;-70
2021/05/29 04:35:09;;;;;;;1.20;1.00;;;10.70;98.00;;;;;;5050735;28;20505;-71
2021/05/29 04:37:35;;;;;;;1.57;1.20;;;10.40;98.00;;;;;;5051435;28;20451;-70
2021/05/29 04:40:02;;;;;;;1.20;1.00;;;10.20;98.00;;;;;;5055586;28;20952;-72
2021/05/29 04:42:30;;;;;;;1.33;1.13;;;10.20;98.00;;;;;;5052845;28;20489;-70
2021/05/29 04:44:56;;;;;;;1.20;1.00;;;10.10;98.00;;;;;;5054366;28;20846;-71
2021/05/29 04:47:24;;;;;;;1.20;1.07;;;10.10;98.00;;;;;;5052505;28;20573;-71
2021/05/29 04:49:50;;;;;;;1.40;1.10;;;10.20;98.00;;;;;;5055162;28;21109;-71
2021/05/29 04:52:17;;;;;;;1.20;0.90;;;10.30;98.00;;;;;;5052828;28;20464;-72
2021/05/29 04:54:43;;;;;;;1.50;1.27;;;10.60;98.00;;;;;;5055348;28;20464;-71
2021/05/29 04:57:09;;;;;;;1.80;1.20;;;10.70;98.00;;;;;;5052836;28;20467;-71
2021/05/29 04:59:36;;;;;;;1.40;1.10;;;10.90;98.00;;;;;;5055122;28;20950;-71
2021/05/29 05:02:03;;;;;;;1.20;1.00;;;11.10;98.00;;;;;;5052315;28;20575;-72
2021/05/29 05:04:30;;;;;;;1.20;1.03;;;11.20;98.00;;;;;;5054979;28;20491;-71
2021/05/29 05:06:57;;;;;;;2.23;1.20;;;11.20;98.00;;;;;;5052241;28;20470;-71
2021/05/29 05:09:24;;;;;;;1.20;1.00;;;11.40;98.00;;;;;;5054969;28;20466;-71
2021/05/29 05:11:50;;;;;;;1.20;1.10;;;11.30;98.00;;;;;;5051750;28;20485;-72
2021/05/29 05:14:17;;;;;;;1.20;0.90;;;11.40;98.00;;;;;;5054738;28;20503;-71
2021/05/29 05:16:43;;;;;;;1.30;1.20;;;11.50;98.00;;;;;;5052137;28;20825;-71
2021/05/29 05:19:10;;;;;;;1.20;1.00;;;11.60;98.00;;;;;;5054885;28;20489;-71
2021/05/29 05:21:37;;;;;;;1.40;1.10;;;11.50;98.00;;;;;;5051800;28;20965;-71
2021/05/29 05:24:05;;;;;;;1.20;0.90;;;11.60;98.00;;;;;;5053732;28;20465;-71
2021/05/29 05:26:31;;;;;;;1.97;1.20;;;11.80;98.00;;;;;;5050417;28;20495;-71
2021/05/29 05:28:58;;;;;;;1.30;1.20;;;11.80;98.00;;;;;;5054599;28;20456;-71
2021/05/29 05:31:25;;;;;;;1.20;0.90;;;11.90;98.00;;;;;;5051797;28;20546;-72
2021/05/29 05:33:53;;;;;;;2.17;1.43;;;12.00;98.00;;;;;;5054613;28;20470;-72
2021/05/29 05:36:21;;;;;;;1.40;1.27;;;12.10;98.00;;;;;;5051966;28;20935;-72
2021/05/29 05:38:49;;;;;;;1.80;1.50;;;12.20;98.00;;;;;;5054531;28;20944;-71
2021/05/29 05:41:16;;;;;;;1.20;1.00;;;12.20;98.00;;;;;;5051159;28;20947;-71
2021/05/29 05:43:42;;;;;;;1.40;1.20;;;12.30;98.00;;;;;;5054324;28;20458;-72
2021/05/29 05:46:11;;;;;;;1.20;1.00;;;12.40;98.00;;;;;;5051569;28;20537;-71
2021/05/29 05:48:38;;;;;;;1.30;1.10;;;12.40;98.00;;;;;;5053848;28;20456;-72
2021/05/29 05:51:05;;;;;;;2.07;1.30;;;12.50;98.00;;;;;;5051212;28;20496;-72
2021/05/29 05:53:31;;;;;;;3.60;1.53;;;12.50;98.00;;;;;;5054031;28;20455;-72
2021/05/29 05:56:01;;;;;;;1.40;1.30;;;12.60;98.00;;;;;;5051301;28;20458;-72
2021/05/29 05:58:29;;;;;;;1.60;1.20;;;12.70;98.00;;;;;;5053842;28;20452;-71
2021/05/29 06:00:55;;;;;;;1.83;1.33;;;12.70;98.00;;;;;;5051123;28;20483;-71
2021/05/29 06:03:30;;;;;;;1.40;1.10;;;12.80;98.00;;;;;;5053989;28;20464;-71
2021/05/29 06:05:57;;;;;;;3.73;1.57;;;12.90;98.00;;;;;;5050992;28;20575;-71
2021/05/29 06:08:28;;;;;;;1.40;1.30;;;13.00;98.00;;;;;;5053899;28;20501;-72
2021/05/29 06:10:55;;;;;;;1.50;1.00;;;13.00;98.00;;;;;;5050011;28;20494;-73
2021/05/29 06:21:36;;;;;;;2.13;1.27;;;13.20;98.00;;;;;;5049406;28;20521;-72
2021/05/29 06:24:04;;;;;;;1.40;1.37;;;13.30;98.00;;;;;;5052655;28;20482;-71
2021/05/29 06:26:30;;;;;;;1.60;1.20;;;13.30;98.00;;;;;;5050116;28;20504;-72
2021/05/29 06:28:58;;;;;;;1.60;1.40;;;13.40;98.00;;;;;;5053471;28;20455;-73
2021/05/29 06:31:24;;;;;;;1.30;1.10;;;13.60;98.00;;;;;;5050304;28;20467;-71
2021/05/29 06:33:50;;;;;;;1.30;1.10;;;13.80;98.00;;;;;;5053244;28;20486;-72
2021/05/29 06:36:17;;;;;;;1.57;1.23;;;14.00;98.00;;;;;;5049900;28;20470;-71
2021/05/29 06:38:45;;;;;;;1.20;1.00;;;14.00;98.00;;;;;;5053204;28;20542;-72
2021/05/29 06:41:11;;;;;;;1.37;1.20;;;14.10;98.00;;;;;;5050577;28;20517;-73
2021/05/29 06:43:38;;;;;;;1.20;1.00;;;14.20;98.00;;;;;;5053030;28;20501;-72
2021/05/29 06:46:05;;;;;;;1.30;1.10;;;14.30;98.00;;;;;;5050140;28;20524;-72
2021/05/29 06:48:32;;;;;;;1.20;1.00;;;14.30;98.00;;;;;;5053096;28;20457;-72
2021/05/29 06:50:58;;;;;;;1.30;1.10;;;14.40;98.00;;;;;;5049639;28;20465;-72
2021/05/29 06:53:28;;;;;;;1.40;1.00;;;14.50;98.00;;;;;;5053169;28;20466;-71
2021/05/29 06:58:49;;;;;;;1.20;1.10;;;14.70;98.00;;;;;;5052964;28;20467;-71
2021/05/29 07:01:18;;;;;;;2.33;1.23;;;14.90;98.00;;;;;;5049082;28;20508;-71
2021/05/29 07:03:44;;;;;;;1.20;1.10;;;15.00;96.20;;;;;;5052760;28;20547;-72
2021/05/29 07:06:11;;;;;;;1.20;1.10;;;15.10;96.10;;;;;;5050151;28;20460;-72
2021/05/29 07:08:38;;;;;;;1.20;1.07;;;15.20;95.00;;;;;;5051158;28;20481;-71
2021/05/29 07:11:05;;;;;;;1.53;1.10;;;15.40;95.10;;;;;;5048437;28;20495;-72
2021/05/29 07:13:32;;;;;;;1.20;1.00;;;15.50;94.80;;;;;;5051694;28;20460;-73
2021/05/29 07:15:59;;;;;;;1.20;1.00;;;15.60;93.80;;;;;;5048213;28;20460;-73
2021/05/29 07:18:30;;;;;;;1.20;1.00;;;15.80;93.00;;;;;;5051153;28;20452;-70
2021/05/29 07:21:00;;;;;;;1.50;1.30;;;15.90;92.20;;;;;;5048812;28;20550;-71
2021/05/29 07:23:27;;;;;;;1.20;1.00;;;16.20;98.00;;;;;;5051788;28;20461;-71
2021/05/29 07:26:01;;;;;;;1.20;1.00;;;16.50;98.00;;;;;;5049321;28;20547;-72
2021/05/29 07:28:28;;;;;;;1.20;1.00;;;17.00;90.50;;;;;;5051787;28;20481;-73
2021/05/29 07:30:55;;;;;;;1.20;1.00;;;17.20;89.50;;;;;;5049412;28;20547;-74
2021/05/29 07:33:23;;;;;;;1.93;1.47;;;17.60;94.50;;;;;;5051164;28;20456;-73
2021/05/29 07:35:59;;;;;;;1.60;1.37;;;18.00;89.70;;;;;;5049359;28;20446;-73
2021/05/29 07:38:26;;;;;;;1.60;1.33;;;18.30;91.30;;;;;;5051273;28;20457;-73
2021/05/29 07:40:52;;;;;;;1.30;1.10;;;18.60;84.60;;;;;;5047977;28;20512;-73
2021/05/29 07:43:19;;;;;;;1.30;1.10;;;18.60;84.10;;;;;;5051703;28;20458;-73
2021/05/29 07:45:53;;;;;;;1.20;1.10;;;18.40;82.40;;;;;;5048593;28;20453;-72
2021/05/29 07:48:20;;;;;;;1.20;1.10;;;18.50;84.90;;;;;;5051877;28;20477;-73
2021/05/29 07:51:05;;;;;;;1.40;1.30;;;18.40;83.20;;;;;;5047300;28;20458;-73
2021/05/29 07:53:33;;;;;;;1.20;1.10;;;18.40;83.10;;;;;;5047912;28;20537;-74
2021/05/29 07:56:02;;;;;;;1.70;1.20;;;18.40;82.10;;;;;;5047025;28;20469;-72
2021/05/29 07:58:28;;;;;;;1.33;1.20;;;18.20;81.60;;;;;;5049526;28;20454;-73
2021/05/29 08:00:56;;;;;;;1.30;1.03;;;18.10;84.40;;;;;;5048136;28;20916;-70
2021/05/29 08:03:24;;;;;;;1.20;1.00;;;18.00;84.20;;;;;;5049952;28;20512;-72
2021/05/29 08:05:52;;;;;;;1.40;1.20;;;18.10;83.70;;;;;;5046579;28;20937;-74
2021/05/29 08:08:20;;;;;;;1.20;1.00;;;18.20;81.90;;;;;;5048170;28;20499;-74
2021/05/29 08:10:49;;;;;;;1.20;1.10;;;18.20;81.70;;;;;;5046542;28;20446;-74
2021/05/29 08:13:15;;;;;;;1.40;1.20;;;18.20;82.70;;;;;;5050207;28;20461;-74
2021/05/29 08:15:42;;;;;;;1.50;1.40;;;18.30;82.40;;;;;;5047740;28;20470;-75
2021/05/29 08:18:09;;;;;;;1.40;1.30;;;18.20;81.80;;;;;;5049496;28;20473;-75
2021/05/29 08:20:36;;;;;;;1.30;1.07;;;18.20;81.60;;;;;;5046896;28;20486;-74
2021/05/29 08:23:03;;;;;;;1.20;1.00;;;18.30;81.10;;;;;;5049650;28;20523;-75
2021/05/29 08:25:30;;;;;;;1.20;1.10;;;18.30;81.30;;;;;;5049717;28;20960;-74
2021/05/29 08:27:57;;;;;;;1.30;1.10;;;18.30;81.40;;;;;;5049083;28;20541;-74
2021/05/29 08:30:24;;;;;;;1.30;1.23;;;18.30;81.10;;;;;;5050891;28;20571;-74
2021/05/29 08:32:50;;;;;;;1.60;1.20;;;18.30;80.20;;;;;;5046979;28;20986;-75
2021/05/29 08:35:16;;;;;;;2.27;1.10;;;18.40;79.80;;;;;;5049344;28;20509;-74
2021/05/29 08:37:45;;;;;;;1.53;1.20;;;18.50;80.30;;;;;;5048007;28;20936;-74
2021/05/29 08:40:13;;;;;;;1.43;1.20;;;18.70;78.90;;;;;;5049537;28;20960;-74
2021/05/29 08:42:41;;;;;;;1.60;1.20;;;18.80;78.50;;;;;;5047944;28;20497;-75
2021/05/29 08:45:10;;;;;;;1.20;1.10;;;18.80;80.60;;;;;;5051182;28;20457;-74
2021/05/29 08:47:36;;;;;;;1.30;1.10;;;18.80;75.90;;;;;;5049079;28;20465;-74
2021/05/29 08:50:04;;;;;;;1.20;1.10;;;18.70;77.30;;;;;;5051193;28;20489;-76
2021/05/29 08:52:36;;;;;;;1.20;1.10;;;18.80;77.80;;;;;;5047084;28;21081;-75
2021/05/29 08:55:04;;;;;;;1.20;1.10;;;19.00;77.30;;;;;;5051210;28;20457;-74
2021/05/29 08:57:31;;;;;;;1.20;1.10;;;18.70;75.90;;;;;;5047321;28;20472;-75
2021/05/29 09:00:00;;;;;;;1.30;1.10;;;18.70;76.00;;;;;;5050928;28;20458;-74
2021/05/29 09:02:27;;;;;;;1.20;1.10;;;18.90;75.20;;;;;;5048016;28;20489;-74
2021/05/29 09:05:03;;;;;;;1.20;1.10;;;19.20;74.70;;;;;;5050998;28;20457;-74
2021/05/29 09:07:29;;;;;;;1.33;1.20;;;19.40;73.50;;;;;;5048599;28;20465;-75
2021/05/29 09:10:18;;;;;;;1.20;1.20;;;19.80;73.50;;;;;;5050771;28;20458;-75
2021/05/29 09:13:02;;;;;;;1.20;1.10;;;20.00;72.40;;;;;;5048136;28;20489;-76
2021/05/29 09:15:57;;;;;;;1.70;1.20;;;20.10;73.30;;;;;;5051417;28;20890;-75
2021/05/29 09:18:38;;;;;;;1.20;1.10;;;20.30;71.00;;;;;;5026914;28;20557;-76
2021/05/29 09:21:27;;;;;;;1.20;1.17;;;20.20;72.30;;;;;;5048353;28;21069;-76
2021/05/29 09:23:55;;;;;;;1.20;1.20;;;20.10;72.30;;;;;;5052135;28;20980;-78
2021/05/29 09:26:39;;;;;;;1.20;1.10;;;20.00;71.70;;;;;;5050545;28;20458;-76
2021/05/29 09:29:17;;;;;;;1.30;1.10;;;19.80;72.30;;;;;;5054597;28;20457;-77
2021/05/29 09:31:52;;;;;;;1.20;1.10;;;19.40;72.50;;;;;;5051865;28;20564;-77
2021/05/29 09:34:39;;;;;;;1.30;1.10;;;19.10;72.30;;;;;;5053310;28;20464;-75
2021/05/29 09:37:09;;;;;;;1.47;1.17;;;19.00;73.60;;;;;;5051583;28;20476;-77
2021/05/29 09:39:37;;;;;;;1.20;1.10;;;19.10;73.40;;;;;;5054511;28;20458;-77
2021/05/29 09:42:04;;;;;;;1.40;1.20;;;19.30;72.80;;;;;;5051567;28;20659;-76
2021/05/29 09:44:32;;;;;;;1.40;1.40;;;19.60;72.40;;;;;;5054269;28;20492;-76
2021/05/29 09:47:14;;;;;;;1.20;1.10;;;20.00;71.50;;;;;;5051371;28;20470;-76
2021/05/29 09:49:52;;;;;;;1.20;1.20;;;20.30;69.80;;;;;;5054094;28;20483;-76
2021/05/29 09:52:28;;;;;;;1.20;1.10;;;20.60;70.40;;;;;;5050982;28;20446;-77
2021/05/29 09:54:56;;;;;;;1.20;1.20;;;20.50;69.70;;;;;;5054260;28;20505;-76
2021/05/29 09:57:23;;;;;;;1.40;1.10;;;20.40;68.90;;;;;;5051239;28;20453;-76
2021/05/29 10:00:01;;;;;;;1.20;1.10;;;20.30;68.80;;;;;;5054027;28;20497;-75
2021/05/29 10:02:29;;;;;;;1.20;1.10;;;20.10;68.80;;;;;;5051272;28;20995;-75
2021/05/29 10:04:56;;;;;;;1.20;1.13;;;19.90;70.50;;;;;;5052994;28;20857;-76
2021/05/29 10:07:25;;;;;;;1.30;1.10;;;19.90;70.70;;;;;;5050984;28;20468;-76
2021/05/29 10:09:52;;;;;;;1.30;1.10;;;20.00;70.30;;;;;;5052909;28;20468;-75
2021/05/29 10:12:19;;;;;;;1.20;1.00;;;20.40;66.60;;;;;;5051605;28;20826;-76
2021/05/29 10:14:45;;;;;;;1.50;1.13;;;20.70;66.60;;;;;;5054002;28;20490;-76
2021/05/29 10:17:14;;;;;;;1.30;1.30;;;21.00;67.20;;;;;;5051318;28;20458;-75
2021/05/29 10:19:45;;;;;;;1.50;1.10;;;21.30;69.10;;;;;;5052617;28;20461;-77
2021/05/29 10:22:13;;;;;;;1.57;1.10;;;21.60;67.20;;;;;;5050978;28;20481;-76
2021/05/29 10:24:40;;;;;;;1.30;1.10;;;21.70;66.60;;;;;;5053581;28;20520;-77
2021/05/29 10:27:10;;;;;;;1.63;1.10;;;21.90;65.80;;;;;;5050973;28;20453;-76
2021/05/29 10:29:37;;;;;;;1.50;1.17;;;22.10;63.00;;;;;;5052392;28;20458;-77
2021/05/29 10:32:13;;;;;;;2.30;1.30;;;22.10;64.20;;;;;;5052252;28;20516;-77
2021/05/29 10:34:55;;;;;;;1.50;1.17;;;22.10;62.80;;;;;;5053119;28;20465;-76
2021/05/29 10:37:34;;;;;;;1.20;1.20;;;22.10;65.00;;;;;;5051911;28;20534;-75
2021/05/29 10:40:30;;;;;;;1.20;1.10;;;22.10;65.10;;;;;;5052684;28;20465;-77
2021/05/29 10:43:15;;;;;;;1.30;1.10;;;21.80;63.60;;;;;;5050272;28;20541;-77
2021/05/29 10:46:09;;;;;;;1.20;1.20;;;21.70;65.30;;;;;;5054056;28;20465;-77
2021/05/29 10:48:44;;;;;;;1.30;1.20;;;21.50;66.40;;;;;;5053954;28;20595;-76
2021/05/29 10:51:12;;;;;;;1.30;1.10;;;21.20;65.00;;;;;;5050617;28;20465;-76
2021/05/29 10:53:44;;;;;;;1.23;1.13;;;21.30;66.40;;;;;;5051708;28;20538;-76
2021/05/29 10:56:31;;;;;;;1.20;1.00;;;21.70;65.80;;;;;;5050376;28;20464;-77
2021/05/29 10:59:15;;;;;;;1.30;1.10;;;22.00;63.60;;;;;;5053616;28;20457;-77
2021/05/29 11:02:01;;;;;;;1.20;1.00;;;22.30;60.40;;;;;;5050329;28;20517;-76
2021/05/29 11:04:30;;;;;;;1.20;1.00;;;22.40;59.60;;;;;;5052984;28;21078;-77
2021/05/29 11:06:59;;;;;;;1.80;1.30;;;22.60;61.20;;;;;;5050278;28;20465;-76
2021/05/29 11:09:48;;;;;;;1.20;1.20;;;22.80;60.50;;;;;;5052938;28;20461;-77
2021/05/29 11:12:16;;;;;;;1.60;1.20;;;22.90;61.30;;;;;;5050163;28;20951;-76
2021/05/29 11:14:56;;;;;;;1.40;1.20;;;23.20;61.10;;;;;;5052887;28;20457;-79
2021/05/29 11:17:26;;;;;;;1.30;1.10;;;23.40;61.40;;;;;;5050078;28;20457;-76
2021/05/29 11:20:12;;;;;;;1.57;1.37;;;23.70;59.30;;;;;;5052797;28;20461;-76
2021/05/29 11:22:44;;;;;;;1.20;1.20;;;23.40;60.70;;;;;;5050081;28;20492;-76
2021/05/29 11:25:17;;;;;;;1.20;1.10;;;23.50;62.50;;;;;;5053227;28;20450;-77
2021/05/29 11:27:46;;;;;;;1.20;1.00;;;23.50;64.00;;;;;;5050465;28;20457;-77
2021/05/29 11:30:15;;;;;;;1.70;1.50;;;23.50;62.70;;;;;;5052806;28;20457;-73
2021/05/29 11:32:48;;;;;;;1.20;1.10;;;23.00;63.50;;;;;;5050269;28;20465;-76
2021/05/29 11:35:32;;;;;;;1.33;1.17;;;22.50;63.70;;;;;;5052446;28;20926;-76
2021/05/29 11:38:14;;;;;;;1.20;1.10;;;22.10;64.20;;;;;;5049807;28;20456;-76
2021/05/29 11:40:53;;;;;;;1.20;1.07;;;21.70;65.20;;;;;;5052270;28;20468;-77
2021/05/29 11:43:22;;;;;;;1.20;1.10;;;21.40;65.50;;;;;;5051598;28;20794;-78
2021/05/29 11:45:56;;;;;;;1.20;1.10;;;21.30;66.40;;;;;;5052204;28;20453;-76
2021/05/29 11:48:35;;;;;;;1.20;1.10;;;21.30;66.70;;;;;;5052013;28;20541;-77
2021/05/29 11:51:11;;;;;;;1.60;1.30;;;21.90;67.40;;;;;;5049275;28;20476;-75
2021/05/29 11:53:45;;;;;;;1.20;1.20;;;22.50;66.70;;;;;;5051947;28;20448;-75
2021/05/29 11:56:15;;;;;;;1.40;1.20;;;22.50;65.00;;;;;;5049597;28;20948;-75
2021/05/29 11:58:54;;;;;;;1.73;1.40;;;22.40;65.80;;;;;;5051998;28;21025;-75
2021/05/29 12:01:23;;;;;;;1.40;1.20;;;22.20;66.20;;;;;;5048573;28;20481;-76
2021/05/29 12:03:52;;;;;;;1.30;1.10;;;22.00;66.00;;;;;;5052150;28;20462;-77
2021/05/29 12:06:40;;;;;;;1.20;1.00;;;21.70;66.40;;;;;;5047907;28;20453;-76
2021/05/29 12:09:10;;;;;;;1.20;1.07;;;21.10;68.10;;;;;;5051687;28;20453;-75
2021/05/29 12:11:39;;;;;;;1.20;1.07;;;20.80;68.90;;;;;;5049202;28;20461;-76
2021/05/29 12:14:10;;;;;;;1.20;1.10;;;21.00;67.20;;;;;;5051608;28;20482;-75
2021/05/29 12:16:40;;;;;;;1.20;1.10;;;21.10;67.10;;;;;;5049695;28;20548;-77
2021/05/29 12:19:07;;;;;;;1.40;1.27;;;21.50;68.00;;;;;;5052085;28;20500;-76
2021/05/29 12:21:45;;;;;;;1.30;1.20;;;22.40;69.30;;;;;;5049339;28;20968;-76
2021/05/29 12:24:16;;;;;;;1.50;1.20;;;22.80;65.80;;;;;;5051791;28;20454;-76
2021/05/29 12:26:43;;;;;;;1.30;1.20;;;23.00;65.70;;;;;;5049288;28;20968;-74
2021/05/29 12:29:10;;;;;;;1.47;1.30;;;23.20;64.90;;;;;;5051759;28;20537;-74
2021/05/29 12:31:50;;;;;;;1.30;1.10;;;23.50;63.70;;;;;;5049170;28;20861;-74
2021/05/29 12:34:16;;;;;;;1.40;1.10;;;23.90;61.40;;;;;;5051012;28;20549;-74
2021/05/29 12:37:11;;;;;;;1.40;1.20;;;24.20;61.10;;;;;;5047928;28;20495;-77
2021/05/29 12:39:47;;;;;;;1.30;1.23;;;24.70;62.40;;;;;;5012591;28;20482;-77
2021/05/29 12:42:34;;;;;;;1.20;1.20;;;25.10;61.10;;;;;;5047580;28;20496;-78
2021/05/29 12:45:07;;;;;;;1.20;1.10;;;25.10;61.70;;;;;;5030745;28;20493;-77
2021/05/29 12:47:35;;;;;;;1.27;1.20;;;24.50;61.20;;;;;;5027269;28;20532;-76
2021/05/29 12:50:13;;;;;;;1.83;1.20;;;24.00;61.20;;;;;;5030354;28;20524;-77
2021/05/29 12:52:39;;;;;;;1.20;1.10;;;23.50;62.50;;;;;;5028370;28;21010;-78
2021/05/29 12:55:16;;;;;;;1.20;1.10;;;23.10;62.40;;;;;;5030565;28;20469;-76
2021/05/29 12:57:43;;;;;;;1.57;1.20;;;22.60;62.90;;;;;;5028077;28;20472;-76
2021/05/29 13:00:30;;;;;;;1.27;1.17;;;22.20;62.90;;;;;;5033880;28;20458;-77
2021/05/29 13:09:06;;;;;;;1.20;1.10;;;21.60;66.20;;;;;;5001177;28;20478;-77
2021/05/29 13:11:36;;;;;;;3.53;1.40;;;21.70;65.60;;;;;;5031893;28;20489;-77
2021/05/29 13:14:05;;;;;;;1.30;1.10;;;22.10;65.10;;;;;;5033230;28;20462;-77
2021/05/29 13:16:50;;;;;;;1.20;1.00;;;22.80;64.70;;;;;;5032125;28;20490;-76
2021/05/29 13:19:16;;;;;;;1.20;1.20;;;23.60;60.50;;;;;;5034336;28;20454;-75